createdAt,value
2022-08-09T00:00:06.596Z,96499.75
2022-08-09T00:02:34.999Z,96501.06
2022-08-09T00:06:16.323Z,96504.28
2022-08-09T00:07:48.346Z,96499.59
2022-08-09T00:10:17.910Z,96499.44
2022-08-09T00:12:47.562Z,96507.97
2022-08-09T00:15:18.995Z,96507.41
2022-08-09T00:18:07.512Z,96507.25
2022-08-09T00:20:32.550Z,96505.06
2022-08-09T00:23:08.283Z,96507.53
2022-08-09T00:25:51.746Z,96495.06
2022-08-09T00:28:18.534Z,96501.41
2022-08-09T00:30:45.300Z,96494.94
2022-08-09T00:33:12.381Z,96497.63
2022-08-09T00:35:43.289Z,96491.28
2022-08-09T00:38:10.571Z,96498.53
2022-08-09T00:40:37.205Z,96501.94
2022-08-09T00:44:14.816Z,96501.41
2022-08-09T00:45:54.239Z,96498.53
2022-08-09T00:48:20.914Z,96503.41
2022-08-09T00:50:52.079Z,96509.78
2022-08-09T00:53:24.095Z,96503.22
2022-08-09T00:56:04.941Z,96511.06
2022-08-09T00:58:36.160Z,96506.69
2022-08-09T01:01:03.360Z,96511.59
2022-08-09T01:03:30.062Z,96509.19
2022-08-09T01:05:59.584Z,96503.34
2022-08-09T01:08:48.910Z,96511.03
2022-08-09T01:11:16.313Z,96508.34
2022-08-09T01:13:58.547Z,96497.06
2022-08-09T01:16:26.612Z,96515.28
2022-08-09T01:19:01.887Z,96511.34
2022-08-09T01:21:41.299Z,96515.94
2022-08-09T01:24:11.547Z,96521.50
2022-08-09T01:26:39.023Z,96520.50
2022-08-09T01:29:05.569Z,96512.09
2022-08-09T01:32:44.011Z,96522.25
2022-08-09T01:34:18.938Z,96526.66
2022-08-09T01:36:50.272Z,96520.88
2022-08-09T01:39:16.874Z,96523.06
2022-08-09T01:41:53.395Z,96524.28
2022-08-09T01:44:22.687Z,96511.41
2022-08-09T01:46:50.230Z,96520.63
2022-08-09T01:49:21.125Z,96520.97
2022-08-09T01:51:53.515Z,96515.81
2022-08-09T01:54:20.609Z,96529.53
2022-08-09T01:56:51.613Z,96521.69
2022-08-09T01:59:18.631Z,96534.59
2022-08-09T02:02:00.184Z,96534.19
2022-08-09T02:04:27.501Z,96523.75
2022-08-09T02:06:58.623Z,96534.06
2022-08-09T02:09:25.989Z,96529.16
2022-08-09T02:12:09.034Z,96536.59
2022-08-09T02:14:35.680Z,96533.19
2022-08-09T02:17:29.634Z,96533.41
2022-08-09T02:19:52.489Z,96540.31
2022-08-09T02:22:27.280Z,96540.72
2022-08-09T02:24:58.439Z,96538.03
2022-08-09T02:27:27.487Z,96548.81
2022-08-09T02:30:10.460Z,96552.00
2022-08-09T02:32:38.034Z,96552.72
2022-08-09T02:35:17.143Z,96553.47
2022-08-09T02:37:45.258Z,96552.22
2022-08-09T02:40:12.077Z,96551.72
2022-08-09T02:42:38.542Z,96554.16
2022-08-09T02:45:06.829Z,96547.63
2022-08-09T02:47:57.463Z,96551.50
2022-08-09T02:50:21.707Z,96549.50
2022-08-09T02:52:55.183Z,96546.81
2022-08-09T02:55:23.163Z,96547.34
2022-08-09T02:58:35.987Z,96553.91
2022-08-09T03:00:58.155Z,96556.41
2022-08-09T03:04:12.327Z,96555.44
2022-08-09T03:06:12.365Z,96544.13
2022-08-09T03:08:39.518Z,96544.63
2022-08-09T03:11:10.401Z,96547.09
2022-08-09T03:13:43.642Z,96539.03
2022-08-09T03:16:23.891Z,96540.03
2022-08-09T03:18:50.666Z,96534.09
2022-08-09T03:21:19.915Z,96533.66
2022-08-09T03:24:03.886Z,96537.06
2022-08-09T03:26:31.994Z,96541.44
2022-08-09T03:28:59.001Z,96539.63
2022-08-09T03:31:26.087Z,96546.63
2022-08-09T03:33:54.002Z,96535.06
2022-08-09T03:36:27.462Z,96543.34
2022-08-09T03:38:54.566Z,96540.28
2022-08-09T03:41:29.903Z,96537.34
2022-08-09T03:44:09.448Z,96535.00
2022-08-09T03:46:39.115Z,96536.47
2022-08-09T03:49:08.757Z,96539.00
2022-08-09T03:51:43.692Z,96540.84
2022-08-09T03:54:29.615Z,96537.75
2022-08-09T03:56:59.165Z,96540.16
2022-08-09T03:59:27.350Z,96540.16
2022-08-09T04:01:54.286Z,96538.06
2022-08-09T04:04:21.887Z,96542.06
2022-08-09T04:06:51.246Z,96548.53
2022-08-09T04:09:41.872Z,96554.59
2022-08-09T04:12:07.168Z,96548.69
2022-08-09T04:14:53.538Z,96551.59
2022-08-09T04:17:29.376Z,96548.69
2022-08-09T04:19:56.511Z,96554.56
2022-08-09T04:22:23.181Z,96549.41
2022-08-09T04:24:51.069Z,96552.13
2022-08-09T04:27:22.014Z,96553.34
2022-08-09T04:29:49.880Z,96550.69
2022-08-09T04:32:16.860Z,96555.63
2022-08-09T04:34:54.270Z,96554.13
2022-08-09T04:37:24.173Z,96554.13
2022-08-09T04:40:10.724Z,96559.72
2022-08-09T04:42:37.942Z,96560.03
2022-08-09T04:45:04.531Z,96562.97
2022-08-09T04:47:45.236Z,96555.34
2022-08-09T04:50:20.674Z,96559.72
2022-08-09T04:52:58.371Z,96561.69
2022-08-09T04:55:26.682Z,96568.56
2022-08-09T04:58:01.766Z,96569.75
2022-08-09T05:00:36.088Z,96573.69
2022-08-09T05:03:12.938Z,96576.41
2022-08-09T05:05:52.013Z,96577.41
2022-08-09T05:08:30.877Z,96584.75
2022-08-09T05:10:57.667Z,96582.56
2022-08-09T05:13:32.886Z,96586.72
2022-08-09T05:16:00.319Z,96593.56
2022-08-09T05:18:38.909Z,96601.38
2022-08-09T05:21:23.037Z,96602.34
2022-08-09T05:23:59.911Z,96593.41
2022-08-09T05:26:37.032Z,96603.09
2022-08-09T05:29:17.473Z,96595.59
2022-08-09T05:31:56.201Z,96595.94
2022-08-09T05:34:29.832Z,96601.91
2022-08-09T05:36:58.015Z,96602.19
2022-08-09T05:39:28.919Z,96605.38
2022-08-09T05:41:56.147Z,96603.78
2022-08-09T05:44:32.792Z,96609.91
2022-08-09T05:46:59.661Z,96603.34
2022-08-09T05:50:24.378Z,96610.31
2022-08-09T05:52:13.162Z,96599.97
2022-08-09T05:54:40.262Z,96608.59
2022-08-09T05:57:07.399Z,96607.88
2022-08-09T05:59:39.468Z,96607.75
2022-08-09T06:02:08.491Z,96606.34
2022-08-09T06:04:36.648Z,96613.81
2022-08-09T06:07:03.218Z,96611.31
2022-08-09T06:09:54.841Z,96614.72
2022-08-09T06:12:16.538Z,96610.97
2022-08-09T06:14:43.932Z,96617.88
2022-08-09T06:17:12.242Z,96615.81
2022-08-09T06:19:40.213Z,96621.56
2022-08-09T06:22:15.343Z,96620.91
2022-08-09T06:24:42.071Z,96626.25
2022-08-09T06:27:08.611Z,96617.81
2022-08-09T06:29:48.306Z,96623.31
2022-08-09T06:32:53.233Z,96636.47
2022-08-09T06:35:09.223Z,96634.94
2022-08-09T06:37:53.363Z,96637.16
2022-08-09T06:40:24.429Z,96640.31
2022-08-09T06:42:51.426Z,96642.94
2022-08-09T06:46:06.627Z,96643.69
2022-08-09T06:48:04.650Z,96645.50
2022-08-09T06:50:34.075Z,96650.97
2022-08-09T06:53:02.224Z,96643.97
2022-08-09T06:55:28.982Z,96644.53
2022-08-09T06:58:02.083Z,96649.88
2022-08-09T07:00:52.509Z,96645.19
2022-08-09T07:03:17.398Z,96640.09
2022-08-09T07:06:02.261Z,96638.03
2022-08-09T07:08:30.668Z,96639.16
2022-08-09T07:10:57.313Z,96652.94
2022-08-09T07:13:28.146Z,96652.16
2022-08-09T07:16:41.008Z,96645.97
2022-08-09T07:18:43.232Z,96651.50
2022-08-09T07:21:10.362Z,96658.72
2022-08-09T07:23:46.668Z,96653.41
2022-08-09T07:26:24.265Z,96657.66
2022-08-09T07:29:09.162Z,96658.84
2022-08-09T07:31:45.502Z,96657.88
2022-08-09T07:34:19.395Z,96654.47
2022-08-09T07:36:48.129Z,96657.03
2022-08-09T07:39:20.116Z,96654.16
2022-08-09T07:42:05.014Z,96651.25
2022-08-09T07:44:51.146Z,96654.03
2022-08-09T07:47:18.372Z,96656.28
2022-08-09T07:50:04.906Z,96653.19
2022-08-09T07:52:35.612Z,96661.28
2022-08-09T07:55:08.597Z,96662.28
2022-08-09T07:57:36.331Z,96656.56
2022-08-09T08:00:08.661Z,96654.66
2022-08-09T08:02:36.099Z,96657.88
2022-08-09T08:05:17.928Z,96660.91
2022-08-09T08:08:43.798Z,96660.41
2022-08-09T08:10:34.777Z,96657.22
2022-08-09T08:13:03.604Z,96664.09
2022-08-09T08:15:30.683Z,96661.31
2022-08-09T08:18:02.192Z,96651.56
2022-08-09T08:20:32.861Z,96658.31
2022-08-09T08:23:03.665Z,96655.69
2022-08-09T08:25:39.909Z,96661.44
2022-08-09T08:28:14.275Z,96655.06
2022-08-09T08:30:41.487Z,96666.13
2022-08-09T08:33:12.030Z,96657.72
2022-08-09T08:35:59.458Z,96663.25
2022-08-09T08:38:25.560Z,96653.75
2022-08-09T08:41:13.693Z,96654.06
2022-08-09T08:43:41.918Z,96656.72
2022-08-09T08:46:32.687Z,96650.53
2022-08-09T08:48:55.767Z,96665.97
2022-08-09T08:51:25.237Z,96657.06
2022-08-09T08:54:03.409Z,96657.28
2022-08-09T08:56:32.010Z,96660.28
2022-08-09T08:58:59.755Z,96663.97
2022-08-09T09:01:44.736Z,96659.09
2022-08-09T09:04:12.811Z,96658.66
2022-08-09T09:06:39.898Z,96663.78
2022-08-09T09:09:21.006Z,96664.63
2022-08-09T09:11:53.567Z,96663.91
2022-08-09T09:14:20.112Z,96665.59
2022-08-09T09:16:49.421Z,96668.06
2022-08-09T09:19:37.076Z,96667.28
2022-08-09T09:22:04.240Z,96663.84
2022-08-09T09:24:32.669Z,96663.69
2022-08-09T09:27:01.235Z,96663.50
2022-08-09T09:29:36.782Z,96661.97
2022-08-09T09:32:15.400Z,96654.69
2022-08-09T09:34:44.730Z,96658.66
2022-08-09T09:37:13.158Z,96652.53
2022-08-09T09:39:54.876Z,96660.22
2022-08-09T09:42:24.278Z,96661.59
2022-08-09T09:44:51.514Z,96664.69
2022-08-09T09:47:21.615Z,96653.63
2022-08-09T09:50:07.195Z,96652.00
2022-08-09T09:52:54.012Z,96655.78
2022-08-09T09:55:31.249Z,96654.03
2022-08-09T09:58:18.776Z,96661.00
2022-08-09T10:00:50.303Z,96656.63
2022-08-09T10:03:22.274Z,96657.56
2022-08-09T10:06:03.553Z,96649.88
2022-08-09T10:08:31.363Z,96655.09
2022-08-09T10:11:06.911Z,96657.19
2022-08-09T10:13:50.343Z,96656.22
2022-08-09T10:16:56.998Z,96657.25
2022-08-09T10:19:04.238Z,96659.25
2022-08-09T10:21:30.840Z,96646.84
2022-08-09T10:23:59.482Z,96642.44
2022-08-09T10:26:26.842Z,96651.63
2022-08-09T10:29:31.358Z,96651.22
2022-08-09T10:34:33.838Z,96645.78
2022-08-09T10:37:03.070Z,96641.63
2022-08-09T10:39:30.174Z,96645.34
2022-08-09T10:42:07.610Z,96656.00
2022-08-09T10:44:36.646Z,96651.72
2022-08-09T10:47:20.534Z,96634.03
2022-08-09T10:49:54.355Z,96638.53
2022-08-09T10:52:21.147Z,96636.81
2022-08-09T10:54:47.709Z,96638.06
2022-08-09T10:57:17.037Z,96634.44
2022-08-09T10:59:57.401Z,96629.78
2022-08-09T11:03:11.507Z,96632.81
2022-08-09T11:05:11.543Z,96621.28
2022-08-09T11:07:58.456Z,96621.06
2022-08-09T11:10:29.324Z,96623.72
2022-08-09T11:12:57.466Z,96623.63
2022-08-09T11:15:24.366Z,96626.22
2022-08-09T11:18:03.859Z,96629.22
2022-08-09T11:20:30.869Z,96619.06
2022-08-09T11:22:59.980Z,96623.44
2022-08-09T11:25:44.667Z,96623.72
2022-08-09T11:28:30.402Z,96622.56
2022-08-09T11:30:59.480Z,96614.16
2022-08-09T11:33:26.919Z,96617.81
2022-08-09T11:35:53.551Z,96609.50
2022-08-09T11:38:22.150Z,96610.59
2022-08-09T11:40:49.368Z,96612.84
2022-08-09T11:43:19.679Z,96599.72
2022-08-09T11:45:48.470Z,96615.97
2022-08-09T11:48:25.276Z,96609.59
2022-08-09T11:52:49.293Z,96610.28
2022-08-09T11:53:58.094Z,96605.28
2022-08-09T11:56:34.415Z,96602.09
2022-08-09T11:59:09.610Z,96597.13
2022-08-09T12:02:34.456Z,96591.66
2022-08-09T12:04:32.280Z,96593.16
2022-08-09T12:07:04.125Z,96590.03
2022-08-09T12:09:37.332Z,96583.94
2022-08-09T12:12:04.276Z,96584.00
2022-08-09T12:14:36.889Z,96585.19
2022-08-09T12:17:27.563Z,96581.50
2022-08-09T12:19:59.457Z,96584.66
2022-08-09T12:22:26.527Z,96577.59
2022-08-09T12:24:53.068Z,96578.81
2022-08-09T12:28:59.482Z,96577.47
2022-08-09T12:30:36.814Z,96577.78
2022-08-09T12:32:52.937Z,96571.31
2022-08-09T12:35:21.902Z,96573.81
2022-08-09T12:37:51.734Z,96574.59
2022-08-09T12:40:19.246Z,96568.03
2022-08-09T12:42:45.822Z,96571.69
2022-08-09T12:45:34.787Z,96578.66
2022-08-09T12:47:59.279Z,96568.09
2022-08-09T12:50:34.658Z,96565.97
2022-08-09T12:53:08.908Z,96557.94
2022-08-09T12:56:12.894Z,96563.44
2022-08-09T12:58:31.719Z,96553.28
2022-08-09T13:00:58.619Z,96555.13
2022-08-09T13:03:54.009Z,96557.13
2022-08-09T13:06:16.035Z,96543.31
2022-08-09T13:08:43.589Z,96545.31
2022-08-09T13:11:25.058Z,96538.44
2022-08-09T13:14:36.825Z,96536.78
2022-08-09T13:16:39.389Z,96535.88
2022-08-09T13:19:11.569Z,96542.94
2022-08-09T13:22:36.028Z,96543.50
2022-08-09T13:24:54.227Z,96534.22
2022-08-09T13:27:12.697Z,96530.25
2022-08-09T13:30:02.622Z,96527.53
2022-08-09T13:32:28.970Z,96539.66
2022-08-09T13:34:55.866Z,96541.13
2022-08-09T13:37:51.763Z,96540.59
2022-08-09T13:41:52.042Z,96534.59
2022-08-09T13:43:03.430Z,96527.16
2022-08-09T13:45:32.336Z,96532.41
2022-08-09T13:48:18.158Z,96533.13
2022-08-09T13:50:44.732Z,96524.25
2022-08-09T13:53:16.130Z,96527.13
2022-08-09T13:55:44.764Z,96529.84
2022-08-09T13:58:14.376Z,96525.47
2022-08-09T14:00:49.928Z,96518.75
2022-08-09T14:04:05.033Z,96513.75
2022-08-09T14:06:19.541Z,96516.44
2022-08-09T14:08:53.028Z,96517.72
2022-08-09T14:11:19.850Z,96512.44
2022-08-09T14:14:23.004Z,96501.34
2022-08-09T14:16:35.605Z,96507.09
2022-08-09T14:19:06.570Z,96510.53
2022-08-09T14:21:33.596Z,96509.53
2022-08-09T14:24:10.297Z,96506.91
2022-08-09T14:26:45.580Z,96509.00
2022-08-09T14:30:04.440Z,96506.47
2022-08-09T14:32:11.045Z,96513.31
2022-08-09T14:34:41.043Z,96510.09
2022-08-09T14:37:09.207Z,96506.03
2022-08-09T14:39:45.444Z,96510.47
2022-08-09T14:42:30.424Z,96514.13
2022-08-09T14:45:01.261Z,96507.78
2022-08-09T14:47:44.836Z,96508.97
2022-08-09T14:50:16.196Z,96508.81
2022-08-09T14:52:43.884Z,96507.13
2022-08-09T14:55:20.366Z,96508.44
2022-08-09T14:57:47.878Z,96507.06
2022-08-09T15:00:15.721Z,96511.44
2022-08-09T15:02:42.306Z,96512.66
2022-08-09T15:05:10.905Z,96509.03
2022-08-09T15:07:43.679Z,96494.94
2022-08-09T15:10:14.119Z,96498.47
2022-08-09T15:12:44.876Z,96494.03
2022-08-09T15:15:12.857Z,96493.63
2022-08-09T15:17:42.101Z,96501.88
2022-08-09T15:21:53.419Z,96491.13
2022-08-09T15:23:02.879Z,96489.72
2022-08-09T15:25:45.902Z,96492.09
2022-08-09T15:28:26.077Z,96487.88
2022-08-09T15:31:00.632Z,96493.19
2022-08-09T15:34:17.738Z,96480.41
2022-08-09T15:36:16.806Z,96488.38
2022-08-09T15:38:43.357Z,96476.97
2022-08-09T15:41:10.266Z,96477.00
2022-08-09T15:43:37.906Z,96471.75
2022-08-09T15:46:28.732Z,96460.44
2022-08-09T15:49:21.109Z,96466.22
2022-08-09T15:52:02.109Z,96469.03
2022-08-09T15:54:33.376Z,96466.31
2022-08-09T15:57:09.408Z,96454.38
2022-08-09T15:59:36.981Z,96469.66
2022-08-09T16:02:04.071Z,96452.84
2022-08-09T16:04:32.430Z,96459.91
2022-08-09T16:07:01.882Z,96462.94
2022-08-09T16:09:32.430Z,96457.97
2022-08-09T16:12:16.157Z,96450.56
2022-08-09T16:14:42.782Z,96451.41
2022-08-09T16:17:12.743Z,96449.97
2022-08-09T16:19:49.415Z,96451.91
2022-08-09T16:22:30.587Z,96450.16
2022-08-09T16:24:57.242Z,96453.59
2022-08-09T16:27:27.030Z,96449.31
2022-08-09T16:30:00.794Z,96432.44
2022-08-09T16:32:35.142Z,96445.81
2022-08-09T16:35:02.380Z,96448.19
2022-08-09T16:37:53.769Z,96445.41
2022-08-09T16:40:29.866Z,96444.81
2022-08-09T16:43:04.592Z,96450.28
2022-08-09T16:45:31.930Z,96436.72
2022-08-09T16:48:38.091Z,96431.69
2022-08-09T16:50:59.445Z,96431.69
2022-08-09T16:53:34.550Z,96429.88
2022-08-09T16:56:05.959Z,96431.53
2022-08-09T16:58:36.759Z,96433.94
2022-08-09T17:01:03.671Z,96429.78
2022-08-09T17:03:30.460Z,96429.00
2022-08-09T17:06:07.111Z,96434.28
2022-08-09T17:08:43.523Z,96438.09
2022-08-09T17:11:24.676Z,96424.94
2022-08-09T17:14:08.237Z,96426.13
2022-08-09T17:16:52.033Z,96423.69
2022-08-09T17:19:18.725Z,96424.47
2022-08-09T17:21:47.783Z,96421.28
2022-08-09T17:24:30.570Z,96420.16
2022-08-09T17:26:57.458Z,96428.69
2022-08-09T17:29:24.931Z,96439.81
2022-08-09T17:31:59.299Z,96434.34
2022-08-09T17:35:01.011Z,96440.31
2022-08-09T17:37:19.711Z,96435.88
2022-08-09T17:39:53.267Z,96453.59
2022-08-09T17:42:51.349Z,96442.13
2022-08-09T17:45:27.442Z,96444.81
2022-08-09T17:47:54.857Z,96448.53
2022-08-09T17:50:25.161Z,96448.81
2022-08-09T17:53:04.745Z,96438.31
2022-08-09T17:55:49.726Z,96445.66
2022-08-09T17:58:18.351Z,96427.75
2022-08-09T18:00:48.368Z,96443.91
2022-08-09T18:03:17.886Z,96444.41
2022-08-09T18:05:45.125Z,96447.69
2022-08-09T18:08:22.045Z,96430.19
2022-08-09T18:11:00.776Z,96431.03
2022-08-09T18:13:43.094Z,96435.06
2022-08-09T18:16:16.648Z,96434.81
2022-08-09T18:18:49.130Z,96446.63
2022-08-09T18:21:22.831Z,96442.34
2022-08-09T18:24:12.835Z,96438.53
2022-08-09T18:26:38.437Z,96449.47
2022-08-09T18:30:42.605Z,96453.16
2022-08-09T18:32:00.180Z,96443.22
2022-08-09T18:34:26.766Z,96451.13
2022-08-09T18:36:53.651Z,96452.59
2022-08-09T18:39:20.560Z,96445.94
2022-08-09T18:41:53.177Z,96458.34
2022-08-09T18:44:20.205Z,96453.88
2022-08-09T18:47:07.922Z,96460.72
2022-08-09T18:49:43.139Z,96461.53
2022-08-09T18:52:13.208Z,96472.72
2022-08-09T18:54:49.655Z,96457.41
2022-08-09T18:57:22.116Z,96464.38
2022-08-09T18:59:52.016Z,96455.09
2022-08-09T19:02:30.529Z,96467.66
2022-08-09T19:05:14.672Z,96465.50
2022-08-09T19:08:04.894Z,96476.09
2022-08-09T19:10:37.632Z,96472.00
2022-08-09T19:13:20.838Z,96473.28
2022-08-09T19:15:51.223Z,96467.13
2022-08-09T19:18:33.292Z,96463.97
2022-08-09T19:21:05.433Z,96477.88
2022-08-09T19:24:32.014Z,96459.84
2022-08-09T19:26:29.069Z,96474.25
2022-08-09T19:29:01.616Z,96457.66
2022-08-09T19:31:28.797Z,96475.19
2022-08-09T19:33:58.228Z,96473.19
2022-08-09T19:36:30.768Z,96476.06
2022-08-09T19:38:59.446Z,96472.13
2022-08-09T19:41:33.378Z,96470.16
2022-08-09T19:44:03.157Z,96486.31
2022-08-09T19:46:35.083Z,96467.56
2022-08-09T19:50:05.344Z,96470.59
2022-08-09T19:51:55.707Z,96463.38
2022-08-09T19:54:23.510Z,96484.56
2022-08-09T19:56:51.692Z,96476.09
2022-08-09T19:59:57.701Z,96466.75
2022-08-09T20:02:18.221Z,96464.31
2022-08-09T20:04:55.325Z,96465.72
2022-08-09T20:07:24.211Z,96467.31
2022-08-09T20:09:51.071Z,96461.56
2022-08-09T20:12:30.223Z,96474.13
2022-08-09T20:15:04.749Z,96461.97
2022-08-09T20:17:54.140Z,96466.63
2022-08-09T20:20:22.122Z,96463.53
2022-08-09T20:22:51.191Z,96463.47
2022-08-09T20:25:23.613Z,96467.88
2022-08-09T20:27:50.133Z,96476.91
2022-08-09T20:30:17.895Z,96466.91
2022-08-09T20:32:48.526Z,96468.16
2022-08-09T20:35:19.357Z,96457.78
2022-08-09T20:38:22.425Z,96472.88
2022-08-09T20:40:32.497Z,96472.00
2022-08-09T20:43:18.445Z,96452.22
2022-08-09T20:46:01.974Z,96475.09
2022-08-09T20:48:32.780Z,96490.13
2022-08-09T20:51:00.781Z,96467.56
2022-08-09T20:53:36.460Z,96488.69
2022-08-09T20:56:04.494Z,96473.97
2022-08-09T20:58:32.712Z,96490.66
2022-08-09T21:01:14.368Z,96491.53
2022-08-09T21:05:48.879Z,96478.25
2022-08-09T21:06:33.781Z,96492.88
2022-08-09T21:09:02.034Z,96493.97
2022-08-09T21:14:16.689Z,96481.53
2022-08-09T21:16:44.159Z,96502.53
2022-08-09T21:20:18.551Z,96482.50
2022-08-09T21:22:02.809Z,96486.69
2022-08-09T21:24:32.484Z,96484.81
2022-08-09T21:26:59.353Z,96479.34
2022-08-09T21:29:26.138Z,96497.00
2022-08-09T21:31:53.109Z,96484.47
2022-08-09T21:34:29.525Z,96484.56
2022-08-09T21:36:56.485Z,96490.22
2022-08-09T21:39:27.741Z,96481.22
2022-08-09T21:42:04.668Z,96492.28
2022-08-09T21:44:37.172Z,96485.16
2022-08-09T21:47:04.501Z,96477.09
2022-08-09T21:49:40.054Z,96484.50
2022-08-09T21:52:17.161Z,96481.22
2022-08-09T21:54:46.135Z,96475.25
2022-08-09T21:57:37.034Z,96478.09
2022-08-09T22:00:02.075Z,96483.31
2022-08-09T22:02:36.526Z,96473.44
2022-08-09T22:05:16.933Z,96481.50
2022-08-09T22:07:52.191Z,96499.16
2022-08-09T22:10:23.177Z,96484.31
2022-08-09T22:12:50.959Z,96499.47
2022-08-09T22:15:18.747Z,96490.47
2022-08-09T22:17:49.804Z,96487.47
2022-08-09T22:20:17.033Z,96495.69
2022-08-09T22:22:48.833Z,96497.97
2022-08-09T22:26:06.103Z,96497.66
2022-08-09T22:28:07.653Z,96496.13
2022-08-09T22:30:34.485Z,96499.47
2022-08-09T22:33:03.125Z,96499.13
2022-08-09T22:36:01.219Z,96521.53
2022-08-09T22:38:22.844Z,96502.88
2022-08-09T22:40:58.122Z,96502.72
2022-08-09T22:44:02.605Z,96516.22
2022-08-09T22:48:11.136Z,96514.00
2022-08-09T22:48:59.934Z,96510.63
2022-08-09T22:51:28.610Z,96518.63
2022-08-09T22:54:02.230Z,96523.34
2022-08-09T22:56:34.380Z,96529.56
2022-08-09T22:59:01.185Z,96530.97
2022-08-09T23:01:32.923Z,96538.25
2022-08-09T23:04:05.133Z,96535.44
2022-08-09T23:06:36.122Z,96533.59
2022-08-09T23:09:02.957Z,96536.22
2022-08-09T23:11:29.493Z,96531.06
2022-08-09T23:13:56.070Z,96532.13
2022-08-09T23:16:22.804Z,96531.44
2022-08-09T23:18:49.368Z,96536.34
2022-08-09T23:21:25.166Z,96534.09
2022-08-09T23:24:01.632Z,96532.94
2022-08-09T23:26:32.386Z,96543.03
2022-08-09T23:28:59.222Z,96538.63
2022-08-09T23:31:26.051Z,96540.44
2022-08-09T23:33:53.276Z,96539.59
2022-08-09T23:36:19.947Z,96533.59
2022-08-09T23:38:48.927Z,96547.84
2022-08-09T23:41:28.627Z,96542.53
2022-08-09T23:43:56.286Z,96535.31
2022-08-09T23:46:22.815Z,96538.31
2022-08-09T23:48:49.570Z,96544.09
2022-08-09T23:51:18.549Z,96538.53
2022-08-09T23:53:45.161Z,96544.88
2022-08-09T23:56:13.953Z,96548.31
2022-08-09T23:58:41.229Z,96554.97
